sensor_id;sensor_type;location;lat;lon;timestamp;P1;durP1;ratioP1;P2;durP2;ratioP2
12433;SDS011;6281;49.038;8.372;2023-06-22T00:02:02;3.67;;;3.27;;
12433;SDS011;6281;49.038;8.372;2023-06-22T00:04:29;5.90;;;3.63;;
12433;SDS011;6281;49.038;8.372;2023-06-22T00:06:56;4.17;;;3.77;;
12433;SDS011;6281;49.038;8.372;2023-06-22T00:09:23;4.60;;;3.47;;
12433;SDS011;6281;49.038;8.372;2023-06-22T00:11:51;4.23;;;3.63;;
12433;SDS011;6281;49.038;8.372;2023-06-22T00:14:18;4.47;;;3.27;;
12433;SDS011;6281;49.038;8.372;2023-06-22T00:16:45;3.63;;;3.33;;
12433;SDS011;6281;49.038;8.372;2023-06-22T00:19:13;4.43;;;3.80;;
12433;SDS011;6281;49.038;8.372;2023-06-22T00:21:40;5.13;;;3.93;;
12433;SDS011;6281;49.038;8.372;2023-06-22T00:24:10;4.47;;;4.03;;
12433;SDS011;6281;49.038;8.372;2023-06-22T00:26:36;4.03;;;3.63;;
12433;SDS011;6281;49.038;8.372;2023-06-22T00:29:05;6.47;;;3.47;;
12433;SDS011;6281;49.038;8.372;2023-06-22T00:31:32;6.10;;;4.43;;
12433;SDS011;6281;49.038;8.372;2023-06-22T00:33:59;6.17;;;4.43;;
12433;SDS011;6281;49.038;8.372;2023-06-22T00:36:26;8.43;;;5.00;;
12433;SDS011;6281;49.038;8.372;2023-06-22T00:38:52;6.33;;;4.63;;
12433;SDS011;6281;49.038;8.372;2023-06-22T00:41:19;7.83;;;5.03;;
12433;SDS011;6281;49.038;8.372;2023-06-22T00:43:46;9.00;;;5.30;;
12433;SDS011;6281;49.038;8.372;2023-06-22T00:46:14;8.87;;;5.37;;
12433;SDS011;6281;49.038;8.372;2023-06-22T00:48:42;7.27;;;5.43;;
12433;SDS011;6281;49.038;8.372;2023-06-22T00:51:09;8.87;;;5.97;;
12433;SDS011;6281;49.038;8.372;2023-06-22T00:53:36;8.60;;;5.37;;
12433;SDS011;6281;49.038;8.372;2023-06-22T00:56:03;7.70;;;5.00;;
12433;SDS011;6281;49.038;8.372;2023-06-22T00:58:31;7.70;;;5.33;;
12433;SDS011;6281;49.038;8.372;2023-06-22T01:00:58;7.10;;;5.50;;
12433;SDS011;6281;49.038;8.372;2023-06-22T01:03:28;7.37;;;5.30;;
12433;SDS011;6281;49.038;8.372;2023-06-22T01:05:55;7.60;;;5.13;;
12433;SDS011;6281;49.038;8.372;2023-06-22T01:08:29;6.77;;;5.10;;
12433;SDS011;6281;49.038;8.372;2023-06-22T01:11:05;8.57;;;5.20;;
12433;SDS011;6281;49.038;8.372;2023-06-22T01:13:35;7.13;;;6.00;;
12433;SDS011;6281;49.038;8.372;2023-06-22T01:16:20;6.53;;;5.73;;
12433;SDS011;6281;49.038;8.372;2023-06-22T01:18:52;6.93;;;5.70;;
12433;SDS011;6281;49.038;8.372;2023-06-22T01:21:22;8.83;;;6.43;;
12433;SDS011;6281;49.038;8.372;2023-06-22T01:23:56;8.47;;;6.07;;
12433;SDS011;6281;49.038;8.372;2023-06-22T01:26:36;6.50;;;5.90;;
12433;SDS011;6281;49.038;8.372;2023-06-22T01:29:09;8.90;;;5.80;;
12433;SDS011;6281;49.038;8.372;2023-06-22T01:31:38;11.10;;;6.07;;
12433;SDS011;6281;49.038;8.372;2023-06-22T01:34:07;8.57;;;6.03;;
12433;SDS011;6281;49.038;8.372;2023-06-22T01:36:35;7.47;;;5.63;;
12433;SDS011;6281;49.038;8.372;2023-06-22T01:39:04;8.13;;;5.83;;
12433;SDS011;6281;49.038;8.372;2023-06-22T01:41:33;7.90;;;5.80;;
12433;SDS011;6281;49.038;8.372;2023-06-22T01:44:02;8.57;;;5.73;;
12433;SDS011;6281;49.038;8.372;2023-06-22T01:46:32;8.13;;;5.87;;
12433;SDS011;6281;49.038;8.372;2023-06-22T01:49:00;7.77;;;5.47;;
12433;SDS011;6281;49.038;8.372;2023-06-22T01:51:28;6.50;;;5.33;;
12433;SDS011;6281;49.038;8.372;2023-06-22T01:53:55;6.97;;;5.47;;
12433;SDS011;6281;49.038;8.372;2023-06-22T01:56:22;6.83;;;5.63;;
12433;SDS011;6281;49.038;8.372;2023-06-22T01:58:50;8.23;;;4.97;;
12433;SDS011;6281;49.038;8.372;2023-06-22T02:01:35;9.37;;;5.87;;
12433;SDS011;6281;49.038;8.372;2023-06-22T02:04:11;9.77;;;5.63;;
12433;SDS011;6281;49.038;8.372;2023-06-22T02:06:41;6.60;;;5.13;;
12433;SDS011;6281;49.038;8.372;2023-06-22T02:09:12;7.40;;;5.47;;
12433;SDS011;6281;49.038;8.372;2023-06-22T02:11:43;8.70;;;5.50;;
12433;SDS011;6281;49.038;8.372;2023-06-22T02:14:13;6.40;;;5.23;;
12433;SDS011;6281;49.038;8.372;2023-06-22T02:16:42;7.17;;;5.70;;
12433;SDS011;6281;49.038;8.372;2023-06-22T02:19:09;8.17;;;5.37;;
12433;SDS011;6281;49.038;8.372;2023-06-22T02:21:36;5.73;;;4.90;;
12433;SDS011;6281;49.038;8.372;2023-06-22T02:24:03;7.13;;;5.23;;
12433;SDS011;6281;49.038;8.372;2023-06-22T02:26:30;8.17;;;5.53;;
12433;SDS011;6281;49.038;8.372;2023-06-22T02:28:59;6.93;;;5.30;;
12433;SDS011;6281;49.038;8.372;2023-06-22T02:31:26;8.80;;;5.77;;
12433;SDS011;6281;49.038;8.372;2023-06-22T02:33:56;7.27;;;5.27;;
12433;SDS011;6281;49.038;8.372;2023-06-22T02:36:23;6.47;;;5.50;;
12433;SDS011;6281;49.038;8.372;2023-06-22T02:38:52;9.13;;;5.50;;
12433;SDS011;6281;49.038;8.372;2023-06-22T02:41:19;8.27;;;5.47;;
12433;SDS011;6281;49.038;8.372;2023-06-22T02:43:46;7.43;;;5.50;;
12433;SDS011;6281;49.038;8.372;2023-06-22T02:46:13;8.83;;;5.77;;
12433;SDS011;6281;49.038;8.372;2023-06-22T02:48:40;6.77;;;5.40;;
12433;SDS011;6281;49.038;8.372;2023-06-22T02:51:08;7.83;;;5.07;;
12433;SDS011;6281;49.038;8.372;2023-06-22T02:53:35;6.47;;;5.67;;
12433;SDS011;6281;49.038;8.372;2023-06-22T02:56:02;7.30;;;5.30;;
12433;SDS011;6281;49.038;8.372;2023-06-22T02:58:30;7.73;;;6.00;;
12433;SDS011;6281;49.038;8.372;2023-06-22T03:01:03;6.23;;;5.10;;
12433;SDS011;6281;49.038;8.372;2023-06-22T03:03:30;7.60;;;5.67;;
12433;SDS011;6281;49.038;8.372;2023-06-22T03:05:57;6.73;;;5.10;;
12433;SDS011;6281;49.038;8.372;2023-06-22T03:08:27;9.10;;;5.80;;
12433;SDS011;6281;49.038;8.372;2023-06-22T03:10:54;8.73;;;5.57;;
12433;SDS011;6281;49.038;8.372;2023-06-22T03:13:21;8.90;;;5.97;;
12433;SDS011;6281;49.038;8.372;2023-06-22T03:15:47;7.57;;;5.17;;
12433;SDS011;6281;49.038;8.372;2023-06-22T03:18:14;6.87;;;5.30;;
12433;SDS011;6281;49.038;8.372;2023-06-22T03:20:41;7.10;;;5.97;;
12433;SDS011;6281;49.038;8.372;2023-06-22T03:23:08;7.50;;;5.27;;
12433;SDS011;6281;49.038;8.372;2023-06-22T03:25:36;7.53;;;5.73;;
12433;SDS011;6281;49.038;8.372;2023-06-22T03:28:03;8.00;;;5.80;;
12433;SDS011;6281;49.038;8.372;2023-06-22T03:30:30;10.43;;;5.70;;
12433;SDS011;6281;49.038;8.372;2023-06-22T03:32:57;6.33;;;5.30;;
12433;SDS011;6281;49.038;8.372;2023-06-22T03:35:24;10.77;;;5.33;;
12433;SDS011;6281;49.038;8.372;2023-06-22T03:37:50;7.13;;;5.47;;
12433;SDS011;6281;49.038;8.372;2023-06-22T03:40:17;6.77;;;5.60;;
12433;SDS011;6281;49.038;8.372;2023-06-22T03:42:45;6.27;;;5.43;;
12433;SDS011;6281;49.038;8.372;2023-06-22T03:45:12;8.77;;;5.90;;
12433;SDS011;6281;49.038;8.372;2023-06-22T03:47:39;6.37;;;5.10;;
12433;SDS011;6281;49.038;8.372;2023-06-22T03:50:06;7.50;;;5.70;;
12433;SDS011;6281;49.038;8.372;2023-06-22T03:52:33;7.30;;;5.50;;
12433;SDS011;6281;49.038;8.372;2023-06-22T03:55:00;7.67;;;5.57;;
12433;SDS011;6281;49.038;8.372;2023-06-22T03:57:27;8.30;;;6.03;;
12433;SDS011;6281;49.038;8.372;2023-06-22T03:59:56;6.93;;;5.40;;
12433;SDS011;6281;49.038;8.372;2023-06-22T04:02:23;6.03;;;5.43;;
12433;SDS011;6281;49.038;8.372;2023-06-22T04:04:51;6.80;;;5.03;;
12433;SDS011;6281;49.038;8.372;2023-06-22T04:07:18;9.20;;;5.53;;
12433;SDS011;6281;49.038;8.372;2023-06-22T04:09:44;8.47;;;5.63;;
12433;SDS011;6281;49.038;8.372;2023-06-22T04:12:11;6.93;;;5.40;;
12433;SDS011;6281;49.038;8.372;2023-06-22T04:14:38;9.10;;;5.97;;
12433;SDS011;6281;49.038;8.372;2023-06-22T04:17:06;7.60;;;4.93;;
12433;SDS011;6281;49.038;8.372;2023-06-22T04:19:33;8.27;;;5.53;;
12433;SDS011;6281;49.038;8.372;2023-06-22T04:22:00;8.67;;;6.10;;
12433;SDS011;6281;49.038;8.372;2023-06-22T04:24:27;7.83;;;6.10;;
12433;SDS011;6281;49.038;8.372;2023-06-22T04:26:53;7.67;;;5.63;;
12433;SDS011;6281;49.038;8.372;2023-06-22T04:29:21;9.80;;;5.57;;
12433;SDS011;6281;49.038;8.372;2023-06-22T04:31:53;6.30;;;5.47;;
12433;SDS011;6281;49.038;8.372;2023-06-22T04:34:24;6.87;;;5.90;;
12433;SDS011;6281;49.038;8.372;2023-06-22T04:36:52;7.33;;;5.77;;
12433;SDS011;6281;49.038;8.372;2023-06-22T04:39:19;7.17;;;6.10;;
12433;SDS011;6281;49.038;8.372;2023-06-22T04:41:46;7.90;;;5.40;;
12433;SDS011;6281;49.038;8.372;2023-06-22T04:44:14;10.70;;;6.10;;
12433;SDS011;6281;49.038;8.372;2023-06-22T04:46:48;8.83;;;5.57;;
12433;SDS011;6281;49.038;8.372;2023-06-22T04:49:19;12.43;;;5.90;;
12433;SDS011;6281;49.038;8.372;2023-06-22T04:51:48;9.90;;;6.40;;
12433;SDS011;6281;49.038;8.372;2023-06-22T04:54:16;7.77;;;5.97;;
12433;SDS011;6281;49.038;8.372;2023-06-22T04:56:43;10.57;;;5.67;;
12433;SDS011;6281;49.038;8.372;2023-06-22T04:59:11;7.90;;;6.17;;
12433;SDS011;6281;49.038;8.372;2023-06-22T05:01:39;9.47;;;5.93;;
12433;SDS011;6281;49.038;8.372;2023-06-22T05:04:06;9.27;;;6.40;;
12433;SDS011;6281;49.038;8.372;2023-06-22T05:06:33;9.00;;;5.93;;
12433;SDS011;6281;49.038;8.372;2023-06-22T05:09:01;11.10;;;5.57;;
12433;SDS011;6281;49.038;8.372;2023-06-22T05:11:30;9.83;;;6.50;;
12433;SDS011;6281;49.038;8.372;2023-06-22T05:13:57;8.67;;;5.83;;
12433;SDS011;6281;49.038;8.372;2023-06-22T05:16:24;7.80;;;6.73;;
12433;SDS011;6281;49.038;8.372;2023-06-22T05:18:51;9.70;;;6.23;;
12433;SDS011;6281;49.038;8.372;2023-06-22T05:21:21;8.83;;;6.40;;
12433;SDS011;6281;49.038;8.372;2023-06-22T05:23:49;12.37;;;7.13;;
12433;SDS011;6281;49.038;8.372;2023-06-22T05:26:18;8.00;;;6.13;;
12433;SDS011;6281;49.038;8.372;2023-06-22T05:28:46;8.07;;;6.40;;
12433;SDS011;6281;49.038;8.372;2023-06-22T05:31:13;10.47;;;6.70;;
12433;SDS011;6281;49.038;8.372;2023-06-22T05:33:41;9.07;;;6.93;;
12433;SDS011;6281;49.038;8.372;2023-06-22T05:36:09;9.00;;;6.97;;
12433;SDS011;6281;49.038;8.372;2023-06-22T05:38:36;8.70;;;6.00;;
12433;SDS011;6281;49.038;8.372;2023-06-22T05:41:03;10.97;;;6.93;;
12433;SDS011;6281;49.038;8.372;2023-06-22T05:43:31;12.93;;;7.53;;
12433;SDS011;6281;49.038;8.372;2023-06-22T05:45:59;9.90;;;6.13;;
12433;SDS011;6281;49.038;8.372;2023-06-22T05:48:26;10.00;;;6.50;;
12433;SDS011;6281;49.038;8.372;2023-06-22T05:50:54;7.63;;;6.50;;
12433;SDS011;6281;49.038;8.372;2023-06-22T05:53:21;8.13;;;6.43;;
12433;SDS011;6281;49.038;8.372;2023-06-22T05:55:48;8.30;;;6.27;;
12433;SDS011;6281;49.038;8.372;2023-06-22T05:58:15;9.30;;;6.90;;
12433;SDS011;6281;49.038;8.372;2023-06-22T06:03:41;8.20;;;6.97;;
12433;SDS011;6281;49.038;8.372;2023-06-22T06:06:09;9.30;;;6.70;;
12433;SDS011;6281;49.038;8.372;2023-06-22T06:08:36;14.00;;;6.73;;
12433;SDS011;6281;49.038;8.372;2023-06-22T06:11:03;9.37;;;7.03;;
12433;SDS011;6281;49.038;8.372;2023-06-22T06:13:30;9.27;;;7.43;;
12433;SDS011;6281;49.038;8.372;2023-06-22T06:15:57;9.03;;;7.80;;
12433;SDS011;6281;49.038;8.372;2023-06-22T06:18:25;10.47;;;7.43;;
12433;SDS011;6281;49.038;8.372;2023-06-22T06:20:52;7.90;;;5.97;;
12433;SDS011;6281;49.038;8.372;2023-06-22T06:23:19;11.23;;;6.47;;
12433;SDS011;6281;49.038;8.372;2023-06-22T06:25:46;8.40;;;6.63;;
12433;SDS011;6281;49.038;8.372;2023-06-22T06:28:13;9.00;;;6.90;;
12433;SDS011;6281;49.038;8.372;2023-06-22T06:30:41;8.30;;;6.73;;
12433;SDS011;6281;49.038;8.372;2023-06-22T06:33:08;9.30;;;7.03;;
12433;SDS011;6281;49.038;8.372;2023-06-22T06:35:37;7.70;;;5.67;;
12433;SDS011;6281;49.038;8.372;2023-06-22T06:38:04;10.97;;;6.37;;
12433;SDS011;6281;49.038;8.372;2023-06-22T06:40:31;9.13;;;6.80;;
12433;SDS011;6281;49.038;8.372;2023-06-22T06:42:58;8.90;;;6.47;;
12433;SDS011;6281;49.038;8.372;2023-06-22T06:45:25;9.23;;;6.47;;
12433;SDS011;6281;49.038;8.372;2023-06-22T06:47:53;9.20;;;6.40;;
12433;SDS011;6281;49.038;8.372;2023-06-22T06:50:20;9.47;;;6.70;;
12433;SDS011;6281;49.038;8.372;2023-06-22T06:52:48;10.60;;;6.50;;
12433;SDS011;6281;49.038;8.372;2023-06-22T06:55:16;12.80;;;6.53;;
12433;SDS011;6281;49.038;8.372;2023-06-22T06:57:44;8.17;;;6.43;;
12433;SDS011;6281;49.038;8.372;2023-06-22T07:00:13;9.03;;;6.47;;
12433;SDS011;6281;49.038;8.372;2023-06-22T07:02:41;8.70;;;6.43;;
12433;SDS011;6281;49.038;8.372;2023-06-22T07:05:09;8.57;;;6.10;;
12433;SDS011;6281;49.038;8.372;2023-06-22T07:07:36;6.13;;;5.50;;
12433;SDS011;6281;49.038;8.372;2023-06-22T07:10:05;8.50;;;6.67;;
12433;SDS011;6281;49.038;8.372;2023-06-22T07:12:32;11.70;;;6.23;;
12433;SDS011;6281;49.038;8.372;2023-06-22T07:15:03;9.37;;;5.87;;
12433;SDS011;6281;49.038;8.372;2023-06-22T07:17:33;6.87;;;5.77;;
12433;SDS011;6281;49.038;8.372;2023-06-22T07:20:00;7.17;;;6.10;;
12433;SDS011;6281;49.038;8.372;2023-06-22T07:22:27;7.47;;;5.53;;
12433;SDS011;6281;49.038;8.372;2023-06-22T07:24:54;9.33;;;6.33;;
12433;SDS011;6281;49.038;8.372;2023-06-22T07:27:22;10.67;;;6.10;;
12433;SDS011;6281;49.038;8.372;2023-06-22T07:29:49;8.83;;;5.67;;
12433;SDS011;6281;49.038;8.372;2023-06-22T07:32:16;9.23;;;5.97;;
12433;SDS011;6281;49.038;8.372;2023-06-22T07:34:43;8.57;;;6.27;;
12433;SDS011;6281;49.038;8.372;2023-06-22T07:37:10;8.23;;;6.17;;
12433;SDS011;6281;49.038;8.372;2023-06-22T07:39:36;9.67;;;6.07;;
12433;SDS011;6281;49.038;8.372;2023-06-22T07:42:04;8.43;;;6.10;;
12433;SDS011;6281;49.038;8.372;2023-06-22T07:44:32;8.70;;;5.37;;
12433;SDS011;6281;49.038;8.372;2023-06-22T07:46:59;7.20;;;5.40;;
12433;SDS011;6281;49.038;8.372;2023-06-22T07:49:27;6.27;;;5.40;;
12433;SDS011;6281;49.038;8.372;2023-06-22T07:51:54;8.10;;;5.97;;
12433;SDS011;6281;49.038;8.372;2023-06-22T07:54:21;8.27;;;5.87;;
12433;SDS011;6281;49.038;8.372;2023-06-22T07:56:48;8.00;;;6.27;;
12433;SDS011;6281;49.038;8.372;2023-06-22T07:59:15;10.40;;;6.47;;
12433;SDS011;6281;49.038;8.372;2023-06-22T08:01:43;5.97;;;5.37;;
12433;SDS011;6281;49.038;8.372;2023-06-22T08:04:10;7.40;;;5.80;;
12433;SDS011;6281;49.038;8.372;2023-06-22T08:06:37;6.67;;;5.37;;
12433;SDS011;6281;49.038;8.372;2023-06-22T08:09:04;8.52;;;5.35;;
12433;SDS011;6281;49.038;8.372;2023-06-22T08:11:31;7.55;;;5.88;;
12433;SDS011;6281;49.038;8.372;2023-06-22T08:13:57;7.13;;;5.65;;
12433;SDS011;6281;49.038;8.372;2023-06-22T08:16:24;10.65;;;5.82;;
12433;SDS011;6281;49.038;8.372;2023-06-22T08:18:53;11.75;;;5.72;;
12433;SDS011;6281;49.038;8.372;2023-06-22T08:21:19;7.68;;;5.70;;
12433;SDS011;6281;49.038;8.372;2023-06-22T08:23:47;7.50;;;5.38;;
12433;SDS011;6281;49.038;8.372;2023-06-22T08:26:14;6.75;;;5.38;;
12433;SDS011;6281;49.038;8.372;2023-06-22T08:28:40;5.68;;;4.82;;
12433;SDS011;6281;49.038;8.372;2023-06-22T08:31:07;7.93;;;5.10;;
12433;SDS011;6281;49.038;8.372;2023-06-22T08:33:34;7.05;;;5.30;;
12433;SDS011;6281;49.038;8.372;2023-06-22T08:36:03;9.35;;;5.68;;
12433;SDS011;6281;49.038;8.372;2023-06-22T08:38:31;5.28;;;4.70;;
12433;SDS011;6281;49.038;8.372;2023-06-22T08:40:57;6.22;;;4.80;;
12433;SDS011;6281;49.038;8.372;2023-06-22T08:43:25;7.28;;;5.22;;
12433;SDS011;6281;49.038;8.372;2023-06-22T08:45:51;6.45;;;4.47;;
12433;SDS011;6281;49.038;8.372;2023-06-22T08:48:18;4.30;;;3.90;;
12433;SDS011;6281;49.038;8.372;2023-06-22T08:50:45;6.13;;;4.68;;
12433;SDS011;6281;49.038;8.372;2023-06-22T08:53:13;5.38;;;4.65;;
12433;SDS011;6281;49.038;8.372;2023-06-22T08:55:40;7.07;;;4.57;;
12433;SDS011;6281;49.038;8.372;2023-06-22T08:58:07;6.63;;;4.72;;
12433;SDS011;6281;49.038;8.372;2023-06-22T09:00:33;6.03;;;5.20;;
12433;SDS011;6281;49.038;8.372;2023-06-22T09:03:01;6.63;;;4.57;;
12433;SDS011;6281;49.038;8.372;2023-06-22T09:05:28;8.45;;;4.40;;
12433;SDS011;6281;49.038;8.372;2023-06-22T09:07:55;5.43;;;4.63;;
12433;SDS011;6281;49.038;8.372;2023-06-22T09:10:25;6.25;;;4.20;;
12433;SDS011;6281;49.038;8.372;2023-06-22T09:12:51;4.85;;;4.32;;
12433;SDS011;6281;49.038;8.372;2023-06-22T09:15:18;6.80;;;4.93;;
12433;SDS011;6281;49.038;8.372;2023-06-22T09:17:45;5.97;;;4.35;;
12433;SDS011;6281;49.038;8.372;2023-06-22T09:20:12;6.45;;;4.25;;
12433;SDS011;6281;49.038;8.372;2023-06-22T09:22:39;6.60;;;4.60;;
12433;SDS011;6281;49.038;8.372;2023-06-22T09:25:06;6.65;;;4.68;;
12433;SDS011;6281;49.038;8.372;2023-06-22T09:27:35;10.02;;;4.60;;
12433;SDS011;6281;49.038;8.372;2023-06-22T09:30:02;6.82;;;4.57;;
12433;SDS011;6281;49.038;8.372;2023-06-22T09:32:30;6.20;;;4.75;;
12433;SDS011;6281;49.038;8.372;2023-06-22T09:34:56;7.05;;;4.78;;
12433;SDS011;6281;49.038;8.372;2023-06-22T09:37:23;6.20;;;4.25;;
12433;SDS011;6281;49.038;8.372;2023-06-22T09:39:50;6.03;;;4.28;;
12433;SDS011;6281;49.038;8.372;2023-06-22T09:42:16;5.50;;;4.63;;
12433;SDS011;6281;49.038;8.372;2023-06-22T09:44:45;5.60;;;4.43;;
12433;SDS011;6281;49.038;8.372;2023-06-22T09:47:11;7.95;;;5.40;;
12433;SDS011;6281;49.038;8.372;2023-06-22T09:49:38;6.95;;;4.68;;
12433;SDS011;6281;49.038;8.372;2023-06-22T09:52:05;6.13;;;4.38;;
12433;SDS011;6281;49.038;8.372;2023-06-22T09:54:32;6.80;;;4.72;;
12433;SDS011;6281;49.038;8.372;2023-06-22T09:56:59;6.32;;;4.78;;
12433;SDS011;6281;49.038;8.372;2023-06-22T09:59:26;8.20;;;5.00;;
12433;SDS011;6281;49.038;8.372;2023-06-22T10:01:54;7.70;;;4.65;;
12433;SDS011;6281;49.038;8.372;2023-06-22T10:04:21;8.10;;;4.53;;
12433;SDS011;6281;49.038;8.372;2023-06-22T10:06:49;6.97;;;4.07;;
12433;SDS011;6281;49.038;8.372;2023-06-22T10:09:16;9.90;;;4.82;;
12433;SDS011;6281;49.038;8.372;2023-06-22T10:11:43;8.00;;;5.03;;
12433;SDS011;6281;49.038;8.372;2023-06-22T10:14:10;5.38;;;4.82;;
12433;SDS011;6281;49.038;8.372;2023-06-22T10:16:37;6.65;;;4.55;;
12433;SDS011;6281;49.038;8.372;2023-06-22T10:19:07;6.25;;;4.20;;
12433;SDS011;6281;49.038;8.372;2023-06-22T10:21:34;6.78;;;4.10;;
12433;SDS011;6281;49.038;8.372;2023-06-22T10:24:01;9.57;;;4.90;;
12433;SDS011;6281;49.038;8.372;2023-06-22T10:26:31;7.82;;;4.60;;
12433;SDS011;6281;49.038;8.372;2023-06-22T10:28:58;7.78;;;4.20;;
12433;SDS011;6281;49.038;8.372;2023-06-22T10:31:25;10.48;;;4.88;;
12433;SDS011;6281;49.038;8.372;2023-06-22T10:33:53;5.45;;;4.80;;
12433;SDS011;6281;49.038;8.372;2023-06-22T10:36:21;5.82;;;4.13;;
12433;SDS011;6281;49.038;8.372;2023-06-22T10:38:48;7.57;;;4.68;;
12433;SDS011;6281;49.038;8.372;2023-06-22T10:41:15;8.10;;;4.60;;
12433;SDS011;6281;49.038;8.372;2023-06-22T10:43:42;7.05;;;4.20;;
12433;SDS011;6281;49.038;8.372;2023-06-22T10:46:09;6.85;;;4.43;;
12433;SDS011;6281;49.038;8.372;2023-06-22T10:48:36;8.18;;;4.97;;
12433;SDS011;6281;49.038;8.372;2023-06-22T10:51:03;8.35;;;4.95;;
12433;SDS011;6281;49.038;8.372;2023-06-22T10:53:31;9.57;;;4.50;;
12433;SDS011;6281;49.038;8.372;2023-06-22T10:55:58;9.50;;;5.18;;
12433;SDS011;6281;49.038;8.372;2023-06-22T10:58:25;5.90;;;4.35;;
12433;SDS011;6281;49.038;8.372;2023-06-22T11:00:52;8.10;;;4.78;;
12433;SDS011;6281;49.038;8.372;2023-06-22T11:03:19;9.38;;;5.40;;
12433;SDS011;6281;49.038;8.372;2023-06-22T11:05:46;9.48;;;5.10;;
12433;SDS011;6281;49.038;8.372;2023-06-22T11:08:13;5.28;;;4.53;;
12433;SDS011;6281;49.038;8.372;2023-06-22T11:10:41;10.13;;;4.07;;
12433;SDS011;6281;49.038;8.372;2023-06-22T11:13:08;7.55;;;5.20;;
12433;SDS011;6281;49.038;8.372;2023-06-22T11:15:35;8.30;;;5.07;;
12433;SDS011;6281;49.038;8.372;2023-06-22T11:18:02;6.32;;;4.70;;
12433;SDS011;6281;49.038;8.372;2023-06-22T11:20:32;6.70;;;4.75;;
12433;SDS011;6281;49.038;8.372;2023-06-22T11:23:03;7.72;;;4.60;;
12433;SDS011;6281;49.038;8.372;2023-06-22T11:25:30;6.15;;;5.00;;
12433;SDS011;6281;49.038;8.372;2023-06-22T11:28:01;7.72;;;5.28;;
12433;SDS011;6281;49.038;8.372;2023-06-22T11:30:28;6.90;;;4.93;;
12433;SDS011;6281;49.038;8.372;2023-06-22T11:32:55;7.93;;;4.75;;
12433;SDS011;6281;49.038;8.372;2023-06-22T11:35:22;6.65;;;4.90;;
12433;SDS011;6281;49.038;8.372;2023-06-22T11:37:49;7.18;;;5.00;;
12433;SDS011;6281;49.038;8.372;2023-06-22T11:40:16;7.70;;;4.88;;
12433;SDS011;6281;49.038;8.372;2023-06-22T11:42:43;5.72;;;4.50;;
12433;SDS011;6281;49.038;8.372;2023-06-22T11:45:11;5.63;;;5.05;;
12433;SDS011;6281;49.038;8.372;2023-06-22T11:47:38;8.32;;;4.93;;
12433;SDS011;6281;49.038;8.372;2023-06-22T11:50:05;6.70;;;4.72;;
12433;SDS011;6281;49.038;8.372;2023-06-22T11:52:33;9.23;;;5.20;;
12433;SDS011;6281;49.038;8.372;2023-06-22T11:55:00;10.50;;;5.15;;
12433;SDS011;6281;49.038;8.372;2023-06-22T11:57:28;6.60;;;4.40;;
12433;SDS011;6281;49.038;8.372;2023-06-22T11:59:56;6.45;;;4.57;;
12433;SDS011;6281;49.038;8.372;2023-06-22T12:02:24;9.55;;;4.78;;
12433;SDS011;6281;49.038;8.372;2023-06-22T12:04:51;8.25;;;5.15;;
12433;SDS011;6281;49.038;8.372;2023-06-22T12:07:20;11.15;;;5.38;;
12433;SDS011;6281;49.038;8.372;2023-06-22T12:09:47;7.68;;;5.32;;
12433;SDS011;6281;49.038;8.372;2023-06-22T12:12:14;5.60;;;4.50;;
12433;SDS011;6281;49.038;8.372;2023-06-22T12:14:40;6.57;;;5.20;;
12433;SDS011;6281;49.038;8.372;2023-06-22T12:17:07;6.35;;;5.25;;
12433;SDS011;6281;49.038;8.372;2023-06-22T12:19:35;7.07;;;4.95;;
12433;SDS011;6281;49.038;8.372;2023-06-22T12:22:02;7.13;;;4.70;;
12433;SDS011;6281;49.038;8.372;2023-06-22T12:24:29;10.15;;;5.32;;
12433;SDS011;6281;49.038;8.372;2023-06-22T12:26:56;9.25;;;5.60;;
12433;SDS011;6281;49.038;8.372;2023-06-22T12:29:23;6.55;;;4.90;;
12433;SDS011;6281;49.038;8.372;2023-06-22T12:31:49;8.55;;;4.80;;
12433;SDS011;6281;49.038;8.372;2023-06-22T12:34:16;7.88;;;4.80;;
12433;SDS011;6281;49.038;8.372;2023-06-22T12:36:44;7.00;;;5.47;;
12433;SDS011;6281;49.038;8.372;2023-06-22T12:39:13;8.13;;;5.22;;
12433;SDS011;6281;49.038;8.372;2023-06-22T12:41:39;6.53;;;4.95;;
12433;SDS011;6281;49.038;8.372;2023-06-22T12:44:06;8.32;;;5.30;;
12433;SDS011;6281;49.038;8.372;2023-06-22T12:46:33;6.47;;;4.93;;
12433;SDS011;6281;49.038;8.372;2023-06-22T12:49:02;9.55;;;5.22;;
12433;SDS011;6281;49.038;8.372;2023-06-22T12:51:29;9.32;;;5.00;;
12433;SDS011;6281;49.038;8.372;2023-06-22T12:53:58;7.55;;;5.88;;
12433;SDS011;6281;49.038;8.372;2023-06-22T12:56:24;7.03;;;5.00;;
12433;SDS011;6281;49.038;8.372;2023-06-22T12:58:51;7.53;;;5.30;;
12433;SDS011;6281;49.038;8.372;2023-06-22T13:01:18;6.05;;;5.20;;
12433;SDS011;6281;49.038;8.372;2023-06-22T13:03:45;7.97;;;5.38;;
12433;SDS011;6281;49.038;8.372;2023-06-22T13:06:11;7.82;;;5.70;;
12433;SDS011;6281;49.038;8.372;2023-06-22T13:08:38;7.35;;;5.68;;
12433;SDS011;6281;49.038;8.372;2023-06-22T13:11:06;10.60;;;6.05;;
12433;SDS011;6281;49.038;8.372;2023-06-22T13:13:33;8.23;;;5.85;;
12433;SDS011;6281;49.038;8.372;2023-06-22T13:16:00;6.22;;;5.40;;
12433;SDS011;6281;49.038;8.372;2023-06-22T13:18:27;6.93;;;5.82;;
12433;SDS011;6281;49.038;8.372;2023-06-22T13:20:53;9.45;;;5.82;;
12433;SDS011;6281;49.038;8.372;2023-06-22T13:23:20;11.40;;;5.50;;
12433;SDS011;6281;49.038;8.372;2023-06-22T13:25:47;5.93;;;5.32;;
12433;SDS011;6281;49.038;8.372;2023-06-22T13:28:20;8.02;;;5.75;;
12433;SDS011;6281;49.038;8.372;2023-06-22T13:30:47;7.45;;;5.72;;
12433;SDS011;6281;49.038;8.372;2023-06-22T13:33:13;7.50;;;5.13;;
12433;SDS011;6281;49.038;8.372;2023-06-22T13:35:40;7.05;;;5.28;;
12433;SDS011;6281;49.038;8.372;2023-06-22T13:38:08;10.55;;;6.07;;
12433;SDS011;6281;49.038;8.372;2023-06-22T13:40:35;8.65;;;5.45;;
12433;SDS011;6281;49.038;8.372;2023-06-22T13:43:02;7.55;;;4.95;;
12433;SDS011;6281;49.038;8.372;2023-06-22T13:45:31;7.20;;;5.18;;
12433;SDS011;6281;49.038;8.372;2023-06-22T13:47:58;7.53;;;6.03;;
12433;SDS011;6281;49.038;8.372;2023-06-22T13:50:25;8.13;;;5.65;;
12433;SDS011;6281;49.038;8.372;2023-06-22T13:52:54;9.43;;;5.78;;
12433;SDS011;6281;49.038;8.372;2023-06-22T13:55:21;6.10;;;4.88;;
12433;SDS011;6281;49.038;8.372;2023-06-22T13:57:48;9.45;;;5.50;;
12433;SDS011;6281;49.038;8.372;2023-06-22T14:00:16;11.75;;;5.57;;
12433;SDS011;6281;49.038;8.372;2023-06-22T14:02:45;12.10;;;5.70;;
12433;SDS011;6281;49.038;8.372;2023-06-22T14:05:12;10.23;;;6.20;;
12433;SDS011;6281;49.038;8.372;2023-06-22T14:07:39;9.00;;;5.90;;
12433;SDS011;6281;49.038;8.372;2023-06-22T14:10:06;11.45;;;5.22;;
12433;SDS011;6281;49.038;8.372;2023-06-22T14:12:33;8.57;;;5.07;;
12433;SDS011;6281;49.038;8.372;2023-06-22T14:15:00;6.75;;;5.32;;
12433;SDS011;6281;49.038;8.372;2023-06-22T14:17:27;8.32;;;5.20;;
12433;SDS011;6281;49.038;8.372;2023-06-22T14:19:55;8.43;;;5.30;;
12433;SDS011;6281;49.038;8.372;2023-06-22T14:22:22;10.82;;;5.40;;
12433;SDS011;6281;49.038;8.372;2023-06-22T14:24:50;7.35;;;5.80;;
12433;SDS011;6281;49.038;8.372;2023-06-22T14:27:17;7.22;;;5.03;;
12433;SDS011;6281;49.038;8.372;2023-06-22T14:29:44;11.32;;;6.20;;
12433;SDS011;6281;49.038;8.372;2023-06-22T14:32:11;13.35;;;5.30;;
12433;SDS011;6281;49.038;8.372;2023-06-22T14:34:37;13.10;;;5.68;;
12433;SDS011;6281;49.038;8.372;2023-06-22T14:37:07;8.25;;;5.40;;
12433;SDS011;6281;49.038;8.372;2023-06-22T14:39:34;9.07;;;5.13;;
12433;SDS011;6281;49.038;8.372;2023-06-22T14:42:01;8.07;;;5.40;;
12433;SDS011;6281;49.038;8.372;2023-06-22T14:44:29;8.00;;;5.53;;
12433;SDS011;6281;49.038;8.372;2023-06-22T14:46:55;7.88;;;5.40;;
12433;SDS011;6281;49.038;8.372;2023-06-22T14:49:22;8.10;;;5.85;;
12433;SDS011;6281;49.038;8.372;2023-06-22T14:51:49;7.00;;;5.25;;
12433;SDS011;6281;49.038;8.372;2023-06-22T14:54:18;10.30;;;5.60;;
12433;SDS011;6281;49.038;8.372;2023-06-22T14:56:44;7.60;;;5.13;;
12433;SDS011;6281;49.038;8.372;2023-06-22T14:59:12;11.07;;;5.75;;
12433;SDS011;6281;49.038;8.372;2023-06-22T15:01:39;11.68;;;6.25;;
12433;SDS011;6281;49.038;8.372;2023-06-22T15:04:06;11.43;;;5.70;;
12433;SDS011;6281;49.038;8.372;2023-06-22T15:06:32;8.02;;;5.80;;